Time;durP1;ratioP1;P1;durP2;ratioP2;P2;SDS_P1;SDS_P2;PMS_P1;PMS_P2;Temp;Humidity;BMP_temperature;BMP_pressure;BME280_temperature;BME280_humidity;BME280_pressure;Samples;Min_cycle;Max_cycle;Signal;HPM_P1;HPM_P2
2021/06/20 00:02:33;;;;;;;15.80;14.05;;;;;;;21.69;68.38;101174.50;6312502;28;20183;-74
2021/06/20 00:05:46;;;;;;;16.13;14.52;;;;;;;21.65;68.30;101173.38;6312051;28;20215;-74
2021/06/20 00:08:51;;;;;;;17.33;14.27;;;;;;;21.58;69.15;101172.84;6312111;28;20204;-74
2021/06/20 00:11:56;;;;;;;16.20;14.27;;;;;;;21.71;68.75;101167.53;6311566;28;20191;-75
2021/06/20 00:15:00;;;;;;;17.23;15.52;;;;;;;21.71;68.29;101178.66;6311945;28;20207;-75
2021/06/20 00:18:06;;;;;;;16.80;13.65;;;;;;;21.85;67.95;101178.91;6311202;28;20474;-75
2021/06/20 00:21:10;;;;;;;15.95;14.32;;;;;;;21.77;68.58;101173.91;6311802;28;20248;-75
2021/06/20 00:24:16;;;;;;;16.20;14.60;;;;;;;21.61;69.14;101169.53;6312081;28;20211;-74
2021/06/20 00:27:22;;;;;;;16.73;15.13;;;;;;;21.74;68.26;101180.03;6312214;28;20184;-75
2021/06/20 00:30:29;;;;;;;16.30;14.80;;;;;;;21.61;68.95;101183.41;6311031;28;20183;-74
2021/06/20 00:33:33;;;;;;;16.10;14.60;;;;;;;21.62;68.85;101172.00;6311448;28;20188;-74
2021/06/20 00:36:37;;;;;;;19.92;14.75;;;;;;;21.55;69.59;101173.41;6312293;28;20187;-74
2021/06/20 00:39:41;;;;;;;17.58;15.07;;;;;;;21.57;69.42;101176.78;6293264;28;20544;-75
2021/06/20 00:42:48;;;;;;;15.77;14.07;;;;;;;21.50;68.97;101165.09;6310988;28;20423;-74
2021/06/20 00:45:52;;;;;;;18.13;14.98;;;;;;;21.58;68.93;101178.41;6310778;28;20522;-74
2021/06/20 00:48:56;;;;;;;18.17;14.50;;;;;;;21.59;68.76;101182.88;6312375;28;20194;-74
2021/06/20 00:52:00;;;;;;;17.00;14.70;;;;;;;21.62;68.88;101185.09;6311202;28;20250;-74
2021/06/20 00:55:06;;;;;;;14.60;13.10;;;;;;;21.63;68.88;101186.72;6310826;28;20490;-73
2021/06/20 00:58:13;;;;;;;16.60;14.98;;;;;;;21.60;69.47;101181.72;6311850;28;20263;-74
2021/06/20 01:01:18;;;;;;;15.85;13.80;;;;;;;21.62;69.47;101173.97;6311850;28;20184;-74
2021/06/20 01:04:23;;;;;;;15.38;13.88;;;;;;;21.62;69.88;101193.41;6311773;28;20275;-74
2021/06/20 01:07:27;;;;;;;15.93;14.15;;;;;;;21.61;70.08;101195.34;6311714;28;20190;-74
2021/06/20 01:10:35;;;;;;;18.67;14.00;;;;;;;21.54;69.95;101175.38;6313712;28;20183;-74
2021/06/20 01:13:43;;;;;;;20.17;16.65;;;;;;;21.51;70.69;101188.97;6316525;28;20246;-74
2021/06/20 01:16:47;;;;;;;16.23;14.68;;;;;;;21.40;70.69;101190.09;6316536;28;20227;-74
2021/06/20 01:19:55;;;;;;;15.52;14.13;;;;;;;21.50;70.91;101182.59;6316746;28;20229;-74
2021/06/20 01:23:00;;;;;;;16.60;14.88;;;;;;;21.38;71.24;101178.47;6316425;28;20184;-75
2021/06/20 01:26:05;;;;;;;16.50;14.20;;;;;;;21.36;71.24;101180.69;6315108;28;20440;-74
2021/06/20 01:29:12;;;;;;;15.80;14.20;;;;;;;21.36;71.24;101164.03;6315966;28;20184;-74
2021/06/20 01:32:18;;;;;;;16.10;14.38;;;;;;;21.42;71.00;101172.06;6316398;28;20222;-74
2021/06/20 01:35:23;;;;;;;17.70;15.07;;;;;;;21.37;71.37;101171.22;6314995;28;20417;-74
2021/06/20 01:38:29;;;;;;;18.88;15.07;;;;;;;21.36;71.23;101175.13;6316151;28;20187;-74
2021/06/20 01:41:33;;;;;;;16.92;14.88;;;;;;;21.38;71.54;101178.47;6315929;28;20275;-74
2021/06/20 01:44:46;;;;;;;18.52;15.57;;;;;;;21.31;71.99;101169.59;6314801;28;20486;-74
2021/06/20 01:47:51;;;;;;;18.65;15.65;;;;;;;21.32;71.59;101171.25;6315808;28;20187;-74
2021/06/20 01:50:55;;;;;;;18.88;15.50;;;;;;;21.29;71.87;101177.38;6315434;28;20183;-74
2021/06/20 01:54:01;;;;;;;16.75;15.00;;;;;;;21.26;72.45;101186.25;6314611;28;20532;-74
2021/06/20 01:57:06;;;;;;;17.35;15.75;;;;;;;21.25;72.01;101179.03;6315579;28;20194;-74
2021/06/20 02:00:14;;;;;;;20.35;15.48;;;;;;;21.26;71.89;101175.16;6314418;28;20195;-74
2021/06/20 02:03:22;;;;;;;17.08;15.27;;;;;;;21.26;72.25;101175.16;6315461;28;20247;-74
2021/06/20 02:06:27;;;;;;;17.00;15.23;;;;;;;21.23;73.14;101181.25;6315263;28;20207;-74
2021/06/20 02:09:32;;;;;;;17.05;15.38;;;;;;;21.21;73.06;101174.03;6315580;28;20269;-74
2021/06/20 02:12:37;;;;;;;16.42;14.90;;;;;;;21.20;72.84;101169.63;6315232;28;20188;-74
2021/06/20 02:15:41;;;;;;;17.98;15.13;;;;;;;21.14;72.93;101173.50;6315463;28;20242;-75
2021/06/20 02:18:46;;;;;;;16.88;15.18;;;;;;;21.18;72.73;101173.78;6314856;28;20190;-75
2021/06/20 02:21:50;;;;;;;17.90;16.10;;;;;;;21.12;73.06;101164.63;6314350;28;20475;-74
2021/06/20 02:24:56;;;;;;;17.25;15.65;;;;;;;21.06;73.57;101165.72;6315218;28;20222;-74
2021/06/20 02:28:01;;;;;;;17.35;15.65;;;;;;;21.00;73.25;101172.38;6314229;28;20184;-74
2021/06/20 02:31:06;;;;;;;19.00;15.10;;;;;;;20.93;73.75;101173.75;6315214;28;20192;-74
2021/06/20 02:34:11;;;;;;;16.75;15.05;;;;;;;21.03;73.25;101182.09;6313553;28;20191;-74
2021/06/20 02:37:16;;;;;;;16.98;15.25;;;;;;;21.01;73.73;101179.56;6313515;28;20459;-74
2021/06/20 02:40:22;;;;;;;16.35;14.85;;;;;;;20.93;73.68;101171.78;6314754;28;20230;-74
2021/06/20 02:43:26;;;;;;;16.92;15.18;;;;;;;21.03;74.14;101182.09;6313739;28;20184;-73
2021/06/20 02:46:31;;;;;;;17.40;15.45;;;;;;;21.01;74.15;101175.97;6314254;28;20242;-74
2021/06/20 02:49:36;;;;;;;18.23;16.30;;;;;;;21.00;74.05;101188.19;6313457;28;20262;-74
2021/06/20 02:52:40;;;;;;;18.08;15.82;;;;;;;20.96;74.29;101190.66;6314271;28;20216;-74
2021/06/20 02:55:45;;;;;;;17.58;15.60;;;;;;;20.88;74.77;101198.69;6313080;28;20494;-74
2021/06/20 02:58:50;;;;;;;18.45;16.27;;;;;;;20.91;74.91;101190.66;6313766;28;20187;-74
2021/06/20 03:01:55;;;;;;;17.58;15.80;;;;;;;21.02;74.55;101203.44;6313061;28;20453;-74
2021/06/20 03:04:59;;;;;;;17.80;15.98;;;;;;;21.06;74.35;101199.00;6312912;28;20247;-74
2021/06/20 03:08:04;;;;;;;20.02;16.10;;;;;;;21.04;74.68;101205.91;6312967;28;20190;-75
2021/06/20 03:11:10;;;;;;;17.63;15.57;;;;;;;21.04;74.66;101195.66;6312645;28;20183;-75
2021/06/20 03:14:14;;;;;;;19.80;16.52;;;;;;;20.99;75.22;101192.88;6312673;28;20494;-74
2021/06/20 03:17:19;;;;;;;17.58;15.65;;;;;;;21.06;75.03;101187.91;6314319;28;20239;-75
2021/06/20 03:20:24;;;;;;;17.48;15.63;;;;;;;21.08;75.54;101185.69;6312571;28;20184;-75
2021/06/20 03:23:28;;;;;;;17.98;16.05;;;;;;;21.11;75.17;101187.91;6312231;28;20524;-74
2021/06/20 03:26:34;;;;;;;18.33;16.20;;;;;;;21.17;75.24;101195.13;6312443;28;20374;-74
2021/06/20 03:29:38;;;;;;;17.58;15.88;;;;;;;21.14;75.44;101190.13;6312051;28;20219;-74
2021/06/20 03:32:43;;;;;;;17.67;16.00;;;;;;;21.20;75.02;101191.81;6313200;28;20215;-74
2021/06/20 03:35:47;;;;;;;18.05;16.17;;;;;;;21.21;75.05;101196.22;6312826;28;20187;-75
2021/06/20 03:38:51;;;;;;;18.23;14.85;;;;;;;21.26;75.54;101203.75;6311971;28;20487;-75
2021/06/20 03:41:56;;;;;;;17.15;15.57;;;;;;;21.34;75.44;101219.00;6311944;28;20475;-75
2021/06/20 03:45:00;;;;;;;21.05;16.55;;;;;;;21.36;75.33;101216.78;6311941;28;20365;-75
2021/06/20 03:48:05;;;;;;;19.48;16.02;;;;;;;21.32;75.42;101215.66;6311766;28;20522;-75
2021/06/20 03:51:09;;;;;;;18.63;16.48;;;;;;;21.37;75.96;101223.97;6311891;28;20569;-75
2021/06/20 03:54:13;;;;;;;18.40;16.63;;;;;;;21.35;76.25;101218.72;6311847;28;20467;-75
2021/06/20 03:57:20;;;;;;;18.55;16.58;;;;;;;21.45;76.43;101217.84;6311642;28;20446;-75
2021/06/20 04:00:25;;;;;;;20.88;16.05;;;;;;;21.49;75.93;101224.53;6311979;28;20247;-75
2021/06/20 04:03:29;;;;;;;21.52;16.60;;;;;;;21.48;76.51;101212.59;6312662;28;20215;-75
2021/06/20 04:06:34;;;;;;;18.42;16.23;;;;;;;21.46;76.62;101211.19;6312527;28;20270;-75
2021/06/20 04:09:38;;;;;;;17.30;15.75;;;;;;;21.58;76.50;101217.28;6311573;28;20462;-75
2021/06/20 04:12:44;;;;;;;21.50;16.90;;;;;;;21.61;76.53;101211.16;6294993;28;20242;-75
2021/06/20 04:15:48;;;;;;;17.27;15.52;;;;;;;21.72;76.63;101207.25;6312356;28;20262;-75
2021/06/20 04:18:52;;;;;;;18.10;16.13;;;;;;;21.80;76.27;101210.28;6311293;28;20183;-75
2021/06/20 04:21:56;;;;;;;19.27;16.75;;;;;;;21.81;76.76;101206.41;6311423;28;20191;-75
2021/06/20 04:25:01;;;;;;;17.60;15.88;;;;;;;21.86;76.24;101191.69;6312269;28;20183;-75
2021/06/20 04:28:07;;;;;;;18.65;16.77;;;;;;;21.92;76.62;101190.56;6311533;28;20207;-75
2021/06/20 04:31:11;;;;;;;21.42;16.98;;;;;;;21.96;77.21;101180.53;6311277;28;20245;-75
2021/06/20 04:34:16;;;;;;;21.05;17.35;;;;;;;21.98;77.50;101161.63;6312632;28;20187;-75
2021/06/20 04:37:20;;;;;;;18.77;16.90;;;;;;;22.00;77.44;101164.97;6311235;28;20187;-75
2021/06/20 04:40:25;;;;;;;19.35;17.42;;;;;;;21.98;77.74;101177.50;6311520;28;20183;-75
2021/06/20 04:43:57;;;;;;;24.13;17.98;;;;;;;22.02;77.75;101179.41;6311523;28;20191;-75
2021/06/20 04:47:01;;;;;;;20.52;18.30;;;;;;;21.99;78.00;101179.97;6316615;28;20233;-75
2021/06/20 04:50:07;;;;;;;20.02;17.67;;;;;;;22.00;79.26;101195.53;6314251;28;20230;-75
2021/06/20 04:53:11;;;;;;;18.88;17.00;;;;;;;22.10;78.41;101209.38;6316065;28;20379;-75
2021/06/20 04:56:15;;;;;;;21.48;17.40;;;;;;;22.17;77.95;101198.78;6317073;28;20191;-75
2021/06/20 04:59:21;;;;;;;20.48;18.27;;;;;;;22.20;77.88;101198.22;6317288;28;20277;-75
2021/06/20 05:02:25;;;;;;;20.85;17.77;;;;;;;22.22;79.09;101207.09;6315820;28;20246;-74
2021/06/20 05:05:29;;;;;;;19.52;17.45;;;;;;;22.29;77.78;101202.06;6315929;28;20302;-75
2021/06/20 05:08:33;;;;;;;19.13;17.17;;;;;;;22.31;77.70;101205.41;6315706;28;20257;-74
2021/06/20 05:11:37;;;;;;;18.52;16.88;;;;;;;22.30;78.46;101225.97;6315707;28;20486;-74
2021/06/20 05:14:46;;;;;;;20.33;18.20;;;;;;;22.43;78.08;101241.19;6316463;28;20250;-74
2021/06/20 05:17:50;;;;;;;19.80;17.83;;;;;;;22.64;77.91;101230.81;6316337;28;20291;-75
2021/06/20 05:20:56;;;;;;;18.30;16.50;;;;;;;23.80;73.11;101232.63;6316160;28;20184;-74
2021/06/20 05:24:00;;;;;;;18.90;17.02;;;;;;;24.18;72.07;101253.94;6316235;28;20222;-75
2021/06/20 05:27:05;;;;;;;18.45;16.50;;;;;;;24.71;69.07;101261.03;6315219;28;20521;-75
2021/06/20 05:30:13;;;;;;;18.70;16.60;;;;;;;24.87;67.07;101256.09;6316447;28;20184;-75
2021/06/20 05:33:18;;;;;;;18.20;16.27;;;;;;;24.82;67.65;101268.19;6316137;28;20184;-75
2021/06/20 05:36:23;;;;;;;17.60;15.60;;;;;;;24.88;67.40;101249.41;6314672;28;20187;-75
2021/06/20 05:39:27;;;;;;;17.05;15.55;;;;;;;24.98;67.27;101245.63;6314769;28;20202;-75
2021/06/20 05:42:31;;;;;;;17.80;16.00;;;;;;;24.86;67.64;101252.47;6315883;28;20245;-75
2021/06/20 05:45:37;;;;;;;17.23;15.18;;;;;;;24.86;67.18;101246.88;6315690;28;20191;-77
2021/06/20 05:48:41;;;;;;;17.35;15.55;;;;;;;24.79;67.41;101254.81;6315111;28;20238;-74
2021/06/20 05:51:45;;;;;;;16.92;15.40;;;;;;;24.67;69.47;101254.41;6315928;28;20215;-74
2021/06/20 05:54:50;;;;;;;18.20;16.40;;;;;;;24.73;70.09;101258.78;6315393;28;20183;-75
2021/06/20 05:57:54;;;;;;;17.05;15.18;;;;;;;24.53;69.07;101270.22;6314726;28;20263;-75
2021/06/20 06:01:00;;;;;;;17.58;15.52;;;;;;;24.57;71.19;101271.31;6314792;28;20206;-75
2021/06/20 06:04:05;;;;;;;16.50;15.00;;;;;;;24.60;69.62;101269.88;6314211;28;20475;-75
2021/06/20 06:07:13;;;;;;;16.27;14.57;;;;;;;24.62;68.83;101274.03;6315453;28;20273;-75
2021/06/20 06:10:18;;;;;;;15.48;14.07;;;;;;;24.71;68.08;101261.03;6314409;28;20184;-74
2021/06/20 06:13:22;;;;;;;15.27;13.95;;;;;;;24.60;68.79;101248.34;6315269;28;20230;-75
2021/06/20 06:16:27;;;;;;;18.77;14.88;;;;;;;24.61;68.98;101244.44;6314290;28;20277;-75
2021/06/20 06:19:32;;;;;;;14.30;13.07;;;;;;;24.43;69.18;101270.34;6314555;28;20500;-75
2021/06/20 06:22:36;;;;;;;16.05;14.38;;;;;;;24.53;69.18;101270.22;6315229;28;20183;-75
2021/06/20 06:25:40;;;;;;;14.07;12.88;;;;;;;24.72;68.86;101268.28;6315019;28;20250;-75
2021/06/20 06:28:44;;;;;;;12.88;11.63;;;;;;;24.56;67.92;101282.75;6314777;28;20218;-74
2021/06/20 06:31:50;;;;;;;11.77;10.77;;;;;;;24.77;68.50;101282.16;6313930;28;20211;-75
2021/06/20 06:34:54;;;;;;;11.35;10.30;;;;;;;24.86;66.92;101285.97;6313315;28;20192;-75
2021/06/20 06:37:58;;;;;;;11.75;10.75;;;;;;;24.86;66.50;101280.38;6314639;28;20265;-75
2021/06/20 06:41:02;;;;;;;11.52;10.35;;;;;;;24.75;67.07;101273.28;6313292;28;20521;-75
2021/06/20 06:44:06;;;;;;;11.77;10.57;;;;;;;24.86;66.40;101291.53;6314019;28;20184;-75
2021/06/20 06:47:15;;;;;;;11.52;10.55;;;;;;;25.00;66.71;101279.63;6296594;28;20199;-75
2021/06/20 06:50:19;;;;;;;11.65;10.48;;;;;;;24.81;66.24;101283.25;6313352;28;20271;-75
2021/06/20 06:53:23;;;;;;;11.18;10.27;;;;;;;24.89;66.12;101285.38;6314016;28;20187;-75
2021/06/20 06:56:27;;;;;;;10.57;9.57;;;;;;;24.87;66.10;101284.84;6314349;28;20248;-75
2021/06/20 06:59:32;;;;;;;10.25;9.35;;;;;;;25.08;66.10;101292.91;6312839;28;20187;-75
2021/06/20 07:02:37;;;;;;;10.80;9.52;;;;;;;25.17;65.64;101291.06;6312786;28;20183;-75
2021/06/20 07:05:42;;;;;;;11.25;10.18;;;;;;;25.15;65.80;101290.56;6312700;28;20435;-76
2021/06/20 07:08:47;;;;;;;12.45;10.18;;;;;;;24.96;66.21;101289.75;6312822;28;20277;-75
2021/06/20 07:11:51;;;;;;;10.45;9.55;;;;;;;25.06;66.80;101297.97;6312809;28;20214;-75
2021/06/20 07:14:55;;;;;;;10.93;10.13;;;;;;;25.24;66.32;101302.72;6311885;28;20200;-76
2021/06/20 07:18:01;;;;;;;13.75;10.50;;;;;;;25.18;65.22;101290.78;6312216;28;20222;-75
2021/06/20 07:21:07;;;;;;;11.13;9.98;;;;;;;25.33;66.08;101300.88;6313069;28;20248;-75
2021/06/20 07:24:11;;;;;;;11.02;10.25;;;;;;;25.48;65.61;101295.91;6313097;28;20190;-75
2021/06/20 07:27:15;;;;;;;11.13;10.05;;;;;;;25.32;65.40;101293.66;6313285;28;20251;-75
2021/06/20 07:30:21;;;;;;;10.85;9.77;;;;;;;25.29;64.85;101291.47;6311876;28;20442;-75
2021/06/20 07:33:27;;;;;;;12.43;9.93;;;;;;;25.46;64.56;101288.97;6313463;28;20183;-75
2021/06/20 07:36:31;;;;;;;10.43;9.43;;;;;;;25.52;64.94;101298.94;6312037;28;20427;-75
2021/06/20 07:39:35;;;;;;;10.35;9.35;;;;;;;25.42;64.60;101304.66;6313009;28;20194;-75
2021/06/20 07:42:41;;;;;;;10.90;9.65;;;;;;;25.42;65.12;101301.88;6311747;28;20183;-75
2021/06/20 07:45:45;;;;;;;10.45;9.48;;;;;;;25.35;65.08;101293.03;6312701;28;20222;-77
2021/06/20 07:48:50;;;;;;;10.45;9.32;;;;;;;25.46;65.96;101289.78;6311724;28;20572;-75
2021/06/20 07:51:54;;;;;;;10.70;9.25;;;;;;;25.64;64.91;101296.47;6313025;28;20259;-76
2021/06/20 07:54:58;;;;;;;10.75;9.68;;;;;;;25.67;64.32;101293.06;6312823;28;20219;-75
2021/06/20 07:58:02;;;;;;;10.13;9.23;;;;;;;25.58;63.55;101297.69;6312764;28;20237;-75
2021/06/20 08:01:07;;;;;;;11.02;10.15;;;;;;;25.68;64.48;101303.09;6312495;28;20250;-73
2021/06/20 08:04:12;;;;;;;11.05;10.25;;;;;;;25.73;63.00;101291.81;6312082;28;20187;-73
2021/06/20 08:07:17;;;;;;;11.25;10.20;;;;;;;25.86;62.84;101299.41;6312432;28;20183;-75
2021/06/20 08:10:21;;;;;;;10.77;9.98;;;;;;;25.83;64.14;101300.03;6312083;28;20207;-74
2021/06/20 08:13:25;;;;;;;11.45;10.45;;;;;;;25.94;63.21;101303.47;6310062;28;20333;-73
2021/06/20 08:16:31;;;;;;;10.52;9.70;;;;;;;26.04;63.13;101284.53;6312730;28;20298;-75
2021/06/20 08:19:37;;;;;;;10.18;9.25;;;;;;;26.07;63.27;101289.50;6310588;28;20384;-75
2021/06/20 08:22:42;;;;;;;12.20;9.63;;;;;;;26.11;63.14;101279.38;6310904;28;20479;-74
2021/06/20 08:25:46;;;;;;;11.73;9.48;;;;;;;25.98;62.40;101274.59;6312218;28;20191;-75
2021/06/20 08:28:50;;;;;;;9.82;9.23;;;;;;;26.09;61.73;101280.81;6312214;28;20210;-75
2021/06/20 08:31:54;;;;;;;21.60;9.45;;;;;;;26.06;61.96;101264.66;6310909;28;20546;-75
2021/06/20 08:35:02;;;;;;;11.70;9.38;;;;;;;26.01;62.08;101268.38;6311376;28;20237;-75
2021/06/20 08:38:08;;;;;;;11.15;10.10;;;;;;;25.99;61.73;101259.47;6311566;28;20222;-75
2021/06/20 08:41:14;;;;;;;10.05;9.45;;;;;;;25.89;61.59;101267.22;6310266;28;20187;-75
2021/06/20 08:44:20;;;;;;;11.43;10.10;;;;;;;25.91;62.37;101264.97;6310437;28;20378;-76
2021/06/20 08:47:24;;;;;;;11.25;10.18;;;;;;;26.03;61.40;101266.09;6310882;28;20252;-76
2021/06/20 08:50:34;;;;;;;10.07;9.30;;;;;;;26.10;60.45;101243.31;6310092;28;20402;-75
2021/06/20 08:53:39;;;;;;;9.88;9.27;;;;;;;26.14;60.94;101243.56;6311483;28;20230;-76
2021/06/20 08:56:49;;;;;;;10.20;9.35;;;;;;;26.17;61.17;101237.34;6311658;28;20183;-76
2021/06/20 08:59:54;;;;;;;10.80;10.00;;;;;;;26.28;61.67;101222.00;6311409;28;20191;-75
2021/06/20 09:02:59;;;;;;;10.18;9.30;;;;;;;26.35;60.38;101226.03;6293347;28;20199;-75
2021/06/20 09:06:13;;;;;;;11.02;9.90;;;;;;;26.30;61.15;101225.31;6311067;28;20191;-75
2021/06/20 09:09:28;;;;;;;10.52;9.77;;;;;;;26.38;61.32;101228.19;6309920;28;20518;-76
2021/06/20 09:12:32;;;;;;;9.93;9.13;;;;;;;26.35;60.59;101220.44;6311212;28;20184;-76
2021/06/20 09:15:37;;;;;;;10.55;9.70;;;;;;;26.42;61.38;101212.47;6310982;28;20286;-75
2021/06/20 09:18:49;;;;;;;11.07;9.48;;;;;;;26.54;60.38;101217.50;6311539;28;20215;-75
2021/06/20 09:21:57;;;;;;;9.77;9.07;;;;;;;26.65;60.48;101216.13;6310217;28;20246;-76
2021/06/20 09:25:02;;;;;;;10.98;9.90;;;;;;;26.69;59.24;101211.56;6311089;28;20214;-76
2021/06/20 09:28:07;;;;;;;13.70;9.68;;;;;;;26.73;58.37;101212.59;6311143;28;20200;-75
2021/06/20 09:31:11;;;;;;;9.60;8.90;;;;;;;26.76;57.66;101211.13;6293721;28;20517;-76
2021/06/20 09:34:17;;;;;;;10.32;9.63;;;;;;;26.86;58.14;101203.31;6316027;28;20184;-76
2021/06/20 09:37:22;;;;;;;11.55;10.50;;;;;;;26.81;59.34;101197.84;6315480;28;20250;-75
2021/06/20 09:40:28;;;;;;;11.15;10.15;;;;;;;26.89;59.82;101205.50;6315285;28;20478;-75
2021/06/20 09:43:33;;;;;;;12.07;10.85;;;;;;;26.95;58.77;101198.63;6314727;28;20475;-76
2021/06/20 09:46:37;;;;;;;11.77;10.52;;;;;;;26.89;59.14;101191.50;6315328;28;20254;-76
2021/06/20 09:49:42;;;;;;;12.52;10.93;;;;;;;27.01;58.95;101197.38;6315601;28;20249;-76
2021/06/20 09:52:50;;;;;;;11.98;11.07;;;;;;;27.06;57.99;101194.44;6315683;28;20250;-76
2021/06/20 09:56:10;;;;;;;13.88;12.57;;;;;;;27.13;59.00;101189.22;6314707;28;20237;-76
2021/06/20 09:59:14;;;;;;;15.05;13.75;;;;;;;27.15;60.46;101197.28;6314978;28;20183;-75
2021/06/20 10:02:24;;;;;;;14.52;13.10;;;;;;;27.19;59.57;101193.56;6315861;28;20187;-76
2021/06/20 10:05:29;;;;;;;12.77;11.60;;;;;;;27.27;58.96;101201.16;6315331;28;20184;-75
2021/06/20 10:08:35;;;;;;;13.05;12.05;;;;;;;27.39;58.82;101185.75;6315571;28;20187;-76
2021/06/20 10:11:39;;;;;;;15.20;13.70;;;;;;;27.33;59.32;101185.88;6314691;28;20211;-76
2021/06/20 10:14:44;;;;;;;14.43;13.27;;;;;;;27.41;59.23;101177.88;6314743;28;20209;-76
2021/06/20 10:17:54;;;;;;;15.95;14.25;;;;;;;27.32;59.65;101175.81;6315620;28;20234;-77
2021/06/20 10:20:58;;;;;;;15.10;13.70;;;;;;;27.30;59.26;101172.50;6313983;28;20249;-77
2021/06/20 10:24:07;;;;;;;13.68;12.25;;;;;;;27.46;59.07;101169.31;6313808;28;20408;-76
2021/06/20 10:27:28;;;;;;;12.55;11.60;;;;;;;27.55;57.29;101170.22;6315278;28;20229;-76
2021/06/20 10:30:35;;;;;;;11.77;10.88;;;;;;;27.56;55.94;101175.47;6314491;28;20239;-76
2021/06/20 10:33:39;;;;;;;11.63;10.30;;;;;;;27.71;55.52;101171.41;6313553;28;20206;-76
2021/06/20 10:36:47;;;;;;;11.13;10.18;;;;;;;27.80;56.29;101166.69;6314234;28;20261;-76
2021/06/20 10:39:55;;;;;;;10.32;9.52;;;;;;;27.82;53.76;101173.63;6313129;28;20241;-75
2021/06/20 10:43:00;;;;;;;9.55;8.75;;;;;;;27.95;54.17;101166.25;6312665;28;20538;-76
2021/06/20 10:46:15;;;;;;;9.48;8.77;;;;;;;27.99;54.03;101172.88;6313818;28;20190;-76
2021/06/20 10:49:20;;;;;;;9.15;8.45;;;;;;;28.04;54.31;101169.94;6314445;28;20251;-76
2021/06/20 10:52:24;;;;;;;11.75;10.10;;;;;;;28.07;53.32;101174.06;6313318;28;20439;-75
2021/06/20 10:55:39;;;;;;;9.35;8.68;;;;;;;28.03;52.90;101171.09;6314152;28;20206;-75
2021/06/20 10:58:49;;;;;;;9.55;8.77;;;;;;;28.10;52.28;101168.63;6312802;28;20350;-76
2021/06/20 11:01:53;;;;;;;11.65;9.27;;;;;;;28.18;53.04;101176.22;6314096;28;20226;-76
2021/06/20 11:04:57;;;;;;;16.67;9.57;;;;;;;28.17;53.52;101173.78;6312532;28;20397;-76
2021/06/20 11:08:05;;;;;;;10.80;9.88;;;;;;;28.10;53.84;101160.22;6312695;28;20207;-75
2021/06/20 11:11:16;;;;;;;11.80;10.15;;;;;;;28.17;54.16;101163.34;6313779;28;20207;-75
2021/06/20 11:14:21;;;;;;;12.15;9.50;;;;;;;28.28;54.12;101169.47;6312611;28;20494;-75
2021/06/20 11:17:35;;;;;;;10.68;9.50;;;;;;;28.30;53.93;101170.00;6312096;28;20227;-75
2021/06/20 11:20:39;;;;;;;12.55;9.75;;;;;;;28.44;54.27;101153.81;6309803;28;20549;-75
2021/06/20 11:23:43;;;;;;;11.05;8.75;;;;;;;28.49;53.43;101164.91;6313468;28;20267;-76
2021/06/20 11:26:58;;;;;;;11.23;8.80;;;;;;;28.50;53.16;101163.75;6312258;28;20450;-75
2021/06/20 11:30:04;;;;;;;12.18;9.55;;;;;;;28.46;53.12;101163.56;6313162;28;20188;-75
2021/06/20 11:33:23;;;;;;;9.77;9.02;;;;;;;28.50;52.18;101167.34;6312155;28;20447;-75
2021/06/20 11:36:28;;;;;;;10.52;9.43;;;;;;;28.60;52.92;101165.41;6294583;28;20435;-76
2021/06/20 11:39:36;;;;;;;10.38;9.43;;;;;;;28.64;52.46;101166.41;6312727;28;20415;-76
2021/06/20 11:42:43;;;;;;;11.88;9.40;;;;;;;28.72;52.89;101174.84;6312870;28;20188;-74
2021/06/20 11:45:48;;;;;;;9.73;9.02;;;;;;;28.88;52.75;101166.75;6312923;28;20187;-76
2021/06/20 11:48:54;;;;;;;12.25;9.32;;;;;;;28.99;53.24;101173.69;6312956;28;20247;-77
2021/06/20 11:52:02;;;;;;;9.90;9.23;;;;;;;28.98;52.69;101172.03;6312516;28;20207;-76
2021/06/20 11:55:14;;;;;;;9.38;8.75;;;;;;;28.99;52.10;101173.69;6311676;28;20251;-76
2021/06/20 11:58:20;;;;;;;14.15;9.27;;;;;;;28.94;51.26;101165.44;6294129;28;20203;-76
2021/06/20 12:01:36;;;;;;;10.02;9.00;;;;;;;29.02;52.25;101153.34;6312653;28;20219;-76
2021/06/20 12:04:43;;;;;;;9.23;8.40;;;;;;;28.89;51.71;101157.19;6312191;28;20211;-76
2021/06/20 12:07:49;;;;;;;11.55;8.90;;;;;;;28.85;51.21;101142.97;6311033;28;20211;-76
2021/06/20 12:10:53;;;;;;;9.38;8.63;;;;;;;28.83;51.23;101147.25;6312059;28;20286;-75
2021/06/20 12:13:59;;;;;;;9.48;8.68;;;;;;;28.71;51.62;101144.31;6313117;28;20183;-75
2021/06/20 12:17:06;;;;;;;9.65;8.68;;;;;;;28.81;51.39;101138.34;6310544;28;20226;-75
2021/06/20 12:20:12;;;;;;;10.80;8.32;;;;;;;28.90;51.87;101147.56;6311969;28;20215;-76
2021/06/20 12:23:23;;;;;;;9.52;8.93;;;;;;;28.89;51.26;101145.94;6312029;28;20187;-76
2021/06/20 12:26:30;;;;;;;9.15;8.43;;;;;;;28.98;50.84;101146.75;6310833;28;20526;-76
2021/06/20 12:29:37;;;;;;;8.98;8.07;;;;;;;28.82;50.44;101145.59;6310782;28;20184;-75
2021/06/20 12:32:41;;;;;;;9.32;8.45;;;;;;;28.88;51.13;101127.44;6311099;28;20215;-75
2021/06/20 12:35:54;;;;;;;8.32;7.60;;;;;;;28.89;51.07;101134.72;6311451;28;20238;-76
2021/06/20 12:39:00;;;;;;;8.45;7.82;;;;;;;28.94;51.18;101137.34;6311647;28;20249;-75
2021/06/20 12:42:05;;;;;;;8.75;8.07;;;;;;;28.99;50.65;101135.16;6311729;28;20187;-75
2021/06/20 12:45:20;;;;;;;11.30;7.95;;;;;;;29.11;50.52;101137.31;6311338;28;20191;-76
2021/06/20 12:48:25;;;;;;;8.20;7.50;;;;;;;29.20;50.71;101129.69;6311874;28;20191;-76
2021/06/20 12:51:35;;;;;;;8.77;7.97;;;;;;;29.05;49.21;101122.59;6311226;28;20276;-76
2021/06/20 12:54:53;;;;;;;8.15;7.40;;;;;;;29.10;49.90;101136.47;6311209;28;20190;-76
2021/06/20 12:57:58;;;;;;;7.85;7.20;;;;;;;29.21;49.77;101125.75;6310466;28;20184;-75
2021/06/20 13:01:06;;;;;;;9.35;7.70;;;;;;;29.13;48.66;101140.59;6295134;28;20206;-76
2021/06/20 13:04:13;;;;;;;8.15;7.55;;;;;;;29.27;48.91;101135.66;6310492;28;20256;-76
2021/06/20 13:07:33;;;;;;;9.50;8.00;;;;;;;29.13;47.72;101134.97;6314181;28;20202;-76
2021/06/20 13:10:38;;;;;;;8.10;7.30;;;;;;;29.20;49.16;101128.88;6315986;28;20184;-75
2021/06/20 13:13:43;;;;;;;8.57;7.70;;;;;;;29.16;47.54;101134.31;6316330;28;20211;-76
2021/06/20 13:16:49;;;;;;;8.20;7.57;;;;;;;29.36;48.13;101122.38;6315268;28;20234;-75
2021/06/20 13:19:54;;;;;;;8.15;7.45;;;;;;;29.37;49.02;101118.41;6315053;28;20184;-76
2021/06/20 13:22:58;;;;;;;9.25;7.93;;;;;;;29.50;48.10;101125.81;6316121;28;20219;-75
2021/06/20 13:26:03;;;;;;;8.55;7.68;;;;;;;29.63;48.01;101121.97;6317591;28;20246;-76
2021/06/20 13:29:08;;;;;;;9.52;8.02;;;;;;;29.62;48.57;101120.28;6316592;28;20190;-75
2021/06/20 13:32:14;;;;;;;9.18;8.23;;;;;;;29.72;47.90;101117.09;6315965;28;20277;-75
2021/06/20 13:35:18;;;;;;;9.02;8.32;;;;;;;29.86;48.24;101107.63;6314741;28;20245;-74
2021/06/20 13:38:24;;;;;;;16.08;8.95;;;;;;;29.80;47.70;101108.97;6315980;28;20184;-76
2021/06/20 13:41:28;;;;;;;9.52;8.35;;;;;;;29.91;47.83;101113.06;6315987;28;20184;-75
2021/06/20 13:44:32;;;;;;;9.30;8.57;;;;;;;29.96;47.47;101107.25;6315508;28;20184;-75
2021/06/20 13:47:38;;;;;;;9.40;8.70;;;;;;;29.99;48.01;101109.38;6315411;28;20184;-75
2021/06/20 13:50:42;;;;;;;9.55;8.77;;;;;;;30.27;46.83;101102.91;6315304;28;20251;-75
2021/06/20 13:53:46;;;;;;;9.13;8.32;;;;;;;30.95;46.19;101101.50;6297679;28;20515;-75
2021/06/20 13:56:52;;;;;;;9.80;7.95;;;;;;;31.01;44.61;101104.09;6315059;28;20230;-76
2021/06/20 13:59:56;;;;;;;8.73;8.00;;;;;;;31.13;45.39;101102.13;6315124;28;20241;-75
2021/06/20 14:03:01;;;;;;;8.07;7.60;;;;;;;31.87;44.26;101104.69;6314811;28;20457;-75
2021/06/20 14:06:06;;;;;;;9.40;8.50;;;;;;;32.28;43.74;101091.50;6315109;28;20243;-76
2021/06/20 14:09:10;;;;;;;9.73;8.82;;;;;;;32.54;42.75;101094.72;6316310;28;20191;-78
2021/06/20 14:12:14;;;;;;;11.68;8.55;;;;;;;32.85;41.88;101099.66;6317851;28;20211;-76